sensor_id;sensor_type;location;lat;lon;timestamp;pressure;altitude;pressure_sealevel;temperature;humidity
11936;BME280;6027;48.576;9.180;2022-12-10T00:01:16;95600.94;;;1.07;100.00
11936;BME280;6027;48.576;9.180;2022-12-10T00:03:42;95597.50;;;1.06;100.00
11936;BME280;6027;48.576;9.180;2022-12-10T00:06:11;95596.75;;;1.14;100.00
11936;BME280;6027;48.576;9.180;2022-12-10T00:08:37;95592.44;;;1.04;100.00
11936;BME280;6027;48.576;9.180;2022-12-10T00:11:05;95593.47;;;1.12;100.00
11936;BME280;6027;48.576;9.180;2022-12-10T00:13:32;95595.88;;;1.05;100.00
11936;BME280;6027;48.576;9.180;2022-12-10T00:16:05;95588.09;;;1.13;100.00
11936;BME280;6027;48.576;9.180;2022-12-10T00:18:32;95580.75;;;1.09;100.00
11936;BME280;6027;48.576;9.180;2022-12-10T00:20:57;95588.78;;;1.15;100.00
11936;BME280;6027;48.576;9.180;2022-12-10T00:23:23;95584.47;;;1.06;100.00
11936;BME280;6027;48.576;9.180;2022-12-10T00:25:48;95592.97;;;1.16;100.00
11936;BME280;6027;48.576;9.180;2022-12-10T00:28:14;95587.47;;;1.19;100.00
11936;BME280;6027;48.576;9.180;2022-12-10T00:30:39;95593.50;;;1.20;100.00
11936;BME280;6027;48.576;9.180;2022-12-10T00:33:05;95585.00;;;1.18;100.00
11936;BME280;6027;48.576;9.180;2022-12-10T00:35:30;95593.66;;;1.18;100.00
11936;BME280;6027;48.576;9.180;2022-12-10T00:37:56;95584.69;;;1.13;100.00
11936;BME280;6027;48.576;9.180;2022-12-10T00:40:22;95591.69;;;1.12;100.00
11936;BME280;6027;48.576;9.180;2022-12-10T00:42:47;95590.03;;;1.11;100.00
11936;BME280;6027;48.576;9.180;2022-12-10T00:45:13;95590.38;;;1.16;100.00
11936;BME280;6027;48.576;9.180;2022-12-10T00:47:38;95598.53;;;1.13;100.00
11936;BME280;6027;48.576;9.180;2022-12-10T00:50:04;95599.16;;;1.07;100.00
11936;BME280;6027;48.576;9.180;2022-12-10T00:52:29;95596.06;;;1.12;100.00
11936;BME280;6027;48.576;9.180;2022-12-10T00:54:55;95600.47;;;1.11;100.00
11936;BME280;6027;48.576;9.180;2022-12-10T00:57:20;95601.28;;;1.12;100.00
11936;BME280;6027;48.576;9.180;2022-12-10T00:59:46;95599.53;;;1.20;100.00
11936;BME280;6027;48.576;9.180;2022-12-10T01:02:11;95606.19;;;1.15;100.00
11936;BME280;6027;48.576;9.180;2022-12-10T01:04:37;95602.56;;;1.08;100.00
11936;BME280;6027;48.576;9.180;2022-12-10T01:07:02;95621.63;;;1.08;100.00
11936;BME280;6027;48.576;9.180;2022-12-10T01:09:29;95623.34;;;0.99;100.00
11936;BME280;6027;48.576;9.180;2022-12-10T01:11:57;95630.13;;;1.10;100.00
11936;BME280;6027;48.576;9.180;2022-12-10T01:14:33;95632.06;;;1.08;100.00
11936;BME280;6027;48.576;9.180;2022-12-10T01:17:01;95631.38;;;1.06;100.00
11936;BME280;6027;48.576;9.180;2022-12-10T01:19:30;95634.50;;;1.10;100.00
11936;BME280;6027;48.576;9.180;2022-12-10T01:21:57;95629.09;;;1.03;100.00
11936;BME280;6027;48.576;9.180;2022-12-10T01:24:24;95637.25;;;1.08;100.00
11936;BME280;6027;48.576;9.180;2022-12-10T01:26:51;95632.56;;;1.12;100.00
11936;BME280;6027;48.576;9.180;2022-12-10T01:29:17;95648.81;;;1.06;100.00
11936;BME280;6027;48.576;9.180;2022-12-10T01:31:42;95650.66;;;1.13;100.00
11936;BME280;6027;48.576;9.180;2022-12-10T01:34:11;95641.88;;;1.14;100.00
11936;BME280;6027;48.576;9.180;2022-12-10T01:36:40;95649.72;;;1.22;100.00
11936;BME280;6027;48.576;9.180;2022-12-10T01:39:09;95640.47;;;1.28;100.00
11936;BME280;6027;48.576;9.180;2022-12-10T01:41:41;95645.16;;;1.24;100.00
11936;BME280;6027;48.576;9.180;2022-12-10T01:46:41;95650.53;;;1.23;100.00
11936;BME280;6027;48.576;9.180;2022-12-10T01:49:12;95649.41;;;1.25;100.00
11936;BME280;6027;48.576;9.180;2022-12-10T01:51:40;95637.03;;;1.27;100.00
11936;BME280;6027;48.576;9.180;2022-12-10T01:54:09;95643.81;;;1.12;100.00
11936;BME280;6027;48.576;9.180;2022-12-10T01:56:38;95644.34;;;1.24;100.00
11936;BME280;6027;48.576;9.180;2022-12-10T01:59:06;95646.13;;;1.23;100.00
11936;BME280;6027;48.576;9.180;2022-12-10T02:07:13;95653.41;;;1.12;100.00
11936;BME280;6027;48.576;9.180;2022-12-10T02:09:49;95657.00;;;1.11;100.00
11936;BME280;6027;48.576;9.180;2022-12-10T02:12:38;95652.16;;;1.24;100.00
11936;BME280;6027;48.576;9.180;2022-12-10T02:17:45;95655.38;;;1.18;100.00
11936;BME280;6027;48.576;9.180;2022-12-10T02:20:50;95659.31;;;1.22;100.00
11936;BME280;6027;48.576;9.180;2022-12-10T02:23:31;95651.34;;;1.23;100.00
11936;BME280;6027;48.576;9.180;2022-12-10T02:31:26;95647.47;;;1.27;100.00
11936;BME280;6027;48.576;9.180;2022-12-10T02:33:57;95646.13;;;1.23;100.00
11936;BME280;6027;48.576;9.180;2022-12-10T02:36:27;95643.69;;;1.22;100.00
11936;BME280;6027;48.576;9.180;2022-12-10T02:38:55;95637.28;;;1.16;100.00
11936;BME280;6027;48.576;9.180;2022-12-10T02:41:26;95624.25;;;1.16;100.00
11936;BME280;6027;48.576;9.180;2022-12-10T02:43:54;95625.25;;;1.15;100.00
11936;BME280;6027;48.576;9.180;2022-12-10T02:46:24;95626.56;;;1.19;100.00
11936;BME280;6027;48.576;9.180;2022-12-10T02:48:54;95637.47;;;1.15;100.00
11936;BME280;6027;48.576;9.180;2022-12-10T02:51:19;95631.91;;;1.10;100.00
11936;BME280;6027;48.576;9.180;2022-12-10T02:53:45;95633.72;;;1.17;100.00
11936;BME280;6027;48.576;9.180;2022-12-10T03:01:58;95608.91;;;1.05;100.00
11936;BME280;6027;48.576;9.180;2022-12-10T03:04:13;95613.50;;;1.11;100.00
11936;BME280;6027;48.576;9.180;2022-12-10T03:06:52;95625.66;;;1.02;100.00
11936;BME280;6027;48.576;9.180;2022-12-10T03:09:24;95624.00;;;0.93;100.00
11936;BME280;6027;48.576;9.180;2022-12-10T03:11:58;95614.78;;;1.07;100.00
11936;BME280;6027;48.576;9.180;2022-12-10T03:14:29;95615.44;;;1.09;100.00
11936;BME280;6027;48.576;9.180;2022-12-10T03:16:57;95607.78;;;1.08;100.00
11936;BME280;6027;48.576;9.180;2022-12-10T03:19:27;95586.72;;;1.01;100.00
11936;BME280;6027;48.576;9.180;2022-12-10T03:21:56;95586.72;;;1.01;100.00
11936;BME280;6027;48.576;9.180;2022-12-10T03:24:22;95591.78;;;1.02;100.00
11936;BME280;6027;48.576;9.180;2022-12-10T03:26:48;95596.84;;;1.04;100.00
11936;BME280;6027;48.576;9.180;2022-12-10T03:29:31;95592.97;;;1.08;100.00
11936;BME280;6027;48.576;9.180;2022-12-10T03:32:00;95584.63;;;1.04;100.00
11936;BME280;6027;48.576;9.180;2022-12-10T03:34:27;95597.16;;;1.01;100.00
11936;BME280;6027;48.576;9.180;2022-12-10T03:36:53;95594.53;;;1.01;100.00
11936;BME280;6027;48.576;9.180;2022-12-10T03:39:19;95597.44;;;0.98;100.00
11936;BME280;6027;48.576;9.180;2022-12-10T03:41:45;95607.41;;;1.02;100.00
11936;BME280;6027;48.576;9.180;2022-12-10T03:44:10;95604.34;;;1.07;100.00
11936;BME280;6027;48.576;9.180;2022-12-10T03:46:36;95613.59;;;1.01;100.00
11936;BME280;6027;48.576;9.180;2022-12-10T03:49:02;95610.09;;;1.11;100.00
11936;BME280;6027;48.576;9.180;2022-12-10T03:51:28;95610.38;;;1.08;100.00
11936;BME280;6027;48.576;9.180;2022-12-10T03:53:53;95617.75;;;1.12;100.00
11936;BME280;6027;48.576;9.180;2022-12-10T03:56:20;95618.91;;;1.18;100.00
11936;BME280;6027;48.576;9.180;2022-12-10T03:58:46;95619.03;;;1.16;100.00
11936;BME280;6027;48.576;9.180;2022-12-10T04:01:12;95611.22;;;1.16;100.00
11936;BME280;6027;48.576;9.180;2022-12-10T04:03:40;95631.47;;;1.22;100.00
11936;BME280;6027;48.576;9.180;2022-12-10T04:06:11;95631.63;;;1.21;100.00
11936;BME280;6027;48.576;9.180;2022-12-10T04:08:37;95636.53;;;1.24;100.00
11936;BME280;6027;48.576;9.180;2022-12-10T04:11:04;95629.53;;;1.24;100.00
11936;BME280;6027;48.576;9.180;2022-12-10T04:13:34;95650.91;;;1.28;100.00
11936;BME280;6027;48.576;9.180;2022-12-10T04:16:19;95650.75;;;1.29;100.00
11936;BME280;6027;48.576;9.180;2022-12-10T04:21:21;95657.22;;;1.25;100.00
11936;BME280;6027;48.576;9.180;2022-12-10T04:24:05;95666.19;;;1.23;100.00
11936;BME280;6027;48.576;9.180;2022-12-10T04:26:51;95669.16;;;1.28;100.00
11936;BME280;6027;48.576;9.180;2022-12-10T04:29:23;95668.31;;;1.27;100.00
11936;BME280;6027;48.576;9.180;2022-12-10T04:31:48;95664.03;;;1.18;100.00
11936;BME280;6027;48.576;9.180;2022-12-10T04:34:14;95662.09;;;1.20;100.00
11936;BME280;6027;48.576;9.180;2022-12-10T04:36:39;95659.03;;;1.25;100.00
11936;BME280;6027;48.576;9.180;2022-12-10T04:39:05;95666.69;;;1.26;100.00
11936;BME280;6027;48.576;9.180;2022-12-10T04:41:30;95668.31;;;1.27;100.00
11936;BME280;6027;48.576;9.180;2022-12-10T04:43:56;95659.53;;;1.28;100.00
11936;BME280;6027;48.576;9.180;2022-12-10T04:46:21;95662.00;;;1.30;100.00
11936;BME280;6027;48.576;9.180;2022-12-10T04:48:47;95656.63;;;1.31;100.00
11936;BME280;6027;48.576;9.180;2022-12-10T04:51:12;95663.94;;;1.28;100.00
11936;BME280;6027;48.576;9.180;2022-12-10T04:53:37;95662.44;;;1.25;100.00
11936;BME280;6027;48.576;9.180;2022-12-10T04:56:03;95669.81;;;1.30;100.00
11936;BME280;6027;48.576;9.180;2022-12-10T04:58:31;95661.78;;;1.23;100.00
11936;BME280;6027;48.576;9.180;2022-12-10T05:01:05;95663.25;;;1.26;100.00
11936;BME280;6027;48.576;9.180;2022-12-10T05:03:31;95648.44;;;1.26;100.00
11936;BME280;6027;48.576;9.180;2022-12-10T05:06:02;95645.69;;;1.28;100.00
11936;BME280;6027;48.576;9.180;2022-12-10T05:08:27;95629.97;;;1.20;100.00
11936;BME280;6027;48.576;9.180;2022-12-10T05:10:53;95638.09;;;1.17;100.00
11936;BME280;6027;48.576;9.180;2022-12-10T05:13:19;95631.63;;;1.21;100.00
11936;BME280;6027;48.576;9.180;2022-12-10T05:15:44;95638.63;;;1.20;100.00
11936;BME280;6027;48.576;9.180;2022-12-10T05:18:10;95651.47;;;1.14;100.00
11936;BME280;6027;48.576;9.180;2022-12-10T05:20:35;95637.06;;;1.01;100.00
11936;BME280;6027;48.576;9.180;2022-12-10T05:23:00;95639.56;;;1.11;100.00
11936;BME280;6027;48.576;9.180;2022-12-10T05:25:44;95638.31;;;1.23;100.00
11936;BME280;6027;48.576;9.180;2022-12-10T05:28:22;95639.81;;;1.26;100.00
11936;BME280;6027;48.576;9.180;2022-12-10T05:30:48;95628.88;;;1.22;100.00
11936;BME280;6027;48.576;9.180;2022-12-10T05:33:14;95625.28;;;1.23;100.00
11936;BME280;6027;48.576;9.180;2022-12-10T05:35:40;95637.25;;;1.08;100.00
11936;BME280;6027;48.576;9.180;2022-12-10T05:38:06;95645.59;;;1.12;100.00
11936;BME280;6027;48.576;9.180;2022-12-10T05:40:36;95646.19;;;1.06;100.00
11936;BME280;6027;48.576;9.180;2022-12-10T05:43:02;95655.22;;;1.11;100.00
11936;BME280;6027;48.576;9.180;2022-12-10T05:45:28;95653.41;;;1.12;100.00
11936;BME280;6027;48.576;9.180;2022-12-10T05:47:53;95653.44;;;1.20;100.00
11936;BME280;6027;48.576;9.180;2022-12-10T05:50:19;95662.22;;;1.11;100.00
11936;BME280;6027;48.576;9.180;2022-12-10T05:52:44;95655.44;;;1.00;100.00
11936;BME280;6027;48.576;9.180;2022-12-10T05:55:10;95657.75;;;1.03;100.00
11936;BME280;6027;48.576;9.180;2022-12-10T05:57:36;95656.56;;;0.97;100.00
11936;BME280;6027;48.576;9.180;2022-12-10T06:00:06;95656.41;;;0.99;100.00
11936;BME280;6027;48.576;9.180;2022-12-10T06:02:34;95653.06;;;1.07;100.00
11936;BME280;6027;48.576;9.180;2022-12-10T06:05:00;95662.81;;;1.04;100.00
11936;BME280;6027;48.576;9.180;2022-12-10T06:07:25;95666.09;;;1.07;100.00
11936;BME280;6027;48.576;9.180;2022-12-10T06:09:51;95662.66;;;1.06;100.00
11936;BME280;6027;48.576;9.180;2022-12-10T06:12:16;95653.00;;;0.98;100.00
11936;BME280;6027;48.576;9.180;2022-12-10T06:14:42;95657.59;;;1.04;100.00
11936;BME280;6027;48.576;9.180;2022-12-10T06:17:07;95664.97;;;1.09;100.00
11936;BME280;6027;48.576;9.180;2022-12-10T06:19:33;95673.44;;;1.11;100.00
11936;BME280;6027;48.576;9.180;2022-12-10T06:21:58;95675.41;;;1.17;100.00
11936;BME280;6027;48.576;9.180;2022-12-10T06:24:24;95677.84;;;1.11;100.00
11936;BME280;6027;48.576;9.180;2022-12-10T06:26:50;95685.59;;;1.02;100.00
11936;BME280;6027;48.576;9.180;2022-12-10T06:29:16;95686.19;;;0.96;100.00
11936;BME280;6027;48.576;9.180;2022-12-10T06:31:42;95697.13;;;1.00;100.00
11936;BME280;6027;48.576;9.180;2022-12-10T06:34:07;95691.63;;;1.03;100.00
11936;BME280;6027;48.576;9.180;2022-12-10T06:36:33;95712.19;;;1.06;100.00
11936;BME280;6027;48.576;9.180;2022-12-10T06:38:58;95700.19;;;1.13;100.00
11936;BME280;6027;48.576;9.180;2022-12-10T06:41:24;95690.50;;;1.06;100.00
11936;BME280;6027;48.576;9.180;2022-12-10T06:43:49;95700.78;;;1.07;100.00
11936;BME280;6027;48.576;9.180;2022-12-10T06:46:18;95702.06;;;1.03;100.00
11936;BME280;6027;48.576;9.180;2022-12-10T06:48:43;95702.72;;;1.05;100.00
11936;BME280;6027;48.576;9.180;2022-12-10T06:51:10;95703.69;;;1.04;100.00
11936;BME280;6027;48.576;9.180;2022-12-10T06:53:46;95698.19;;;1.07;100.00
11936;BME280;6027;48.576;9.180;2022-12-10T06:56:15;95697.13;;;1.00;100.00
11936;BME280;6027;48.576;9.180;2022-12-10T06:58:41;95706.56;;;0.93;100.00
11936;BME280;6027;48.576;9.180;2022-12-10T07:01:19;95708.09;;;1.03;100.00
11936;BME280;6027;48.576;9.180;2022-12-10T07:03:49;95713.00;;;1.07;100.00
11936;BME280;6027;48.576;9.180;2022-12-10T07:06:15;95718.22;;;1.07;100.00
11936;BME280;6027;48.576;9.180;2022-12-10T07:08:40;95722.22;;;1.01;100.00
11936;BME280;6027;48.576;9.180;2022-12-10T07:11:08;95718.22;;;1.07;100.00
11936;BME280;6027;48.576;9.180;2022-12-10T07:13:34;95719.25;;;1.14;100.00
11936;BME280;6027;48.576;9.180;2022-12-10T07:16:02;95713.66;;;1.09;100.00
11936;BME280;6027;48.576;9.180;2022-12-10T07:18:29;95711.81;;;1.01;100.00
11936;BME280;6027;48.576;9.180;2022-12-10T07:20:55;95711.66;;;1.02;100.00
11936;BME280;6027;48.576;9.180;2022-12-10T07:23:20;95713.41;;;0.94;100.00
11936;BME280;6027;48.576;9.180;2022-12-10T07:25:46;95713.88;;;0.97;100.00
11936;BME280;6027;48.576;9.180;2022-12-10T07:28:12;95710.28;;;0.90;100.00
11936;BME280;6027;48.576;9.180;2022-12-10T07:30:37;95730.97;;;0.92;100.00
11936;BME280;6027;48.576;9.180;2022-12-10T07:33:03;95732.22;;;0.88;100.00
11936;BME280;6027;48.576;9.180;2022-12-10T07:35:28;95744.59;;;0.86;100.00
11936;BME280;6027;48.576;9.180;2022-12-10T07:37:54;95739.94;;;0.97;100.00
11936;BME280;6027;48.576;9.180;2022-12-10T07:40:19;95745.16;;;0.97;100.00
11936;BME280;6027;48.576;9.180;2022-12-10T07:42:45;95750.44;;;1.06;100.00
11936;BME280;6027;48.576;9.180;2022-12-10T07:45:11;95749.63;;;1.05;100.00
11936;BME280;6027;48.576;9.180;2022-12-10T07:47:38;95746.34;;;1.03;100.00
11936;BME280;6027;48.576;9.180;2022-12-10T07:50:05;95744.72;;;1.02;100.00
11936;BME280;6027;48.576;9.180;2022-12-10T07:52:31;95744.03;;;1.00;100.00
11936;BME280;6027;48.576;9.180;2022-12-10T07:54:56;95747.84;;;1.06;100.00
11936;BME280;6027;48.576;9.180;2022-12-10T07:57:21;95750.59;;;1.04;100.00
11936;BME280;6027;48.576;9.180;2022-12-10T07:59:47;95744.56;;;1.03;100.00
11936;BME280;6027;48.576;9.180;2022-12-10T08:02:12;95752.81;;;1.17;100.00
11936;BME280;6027;48.576;9.180;2022-12-10T08:04:38;95753.06;;;1.06;100.00
11936;BME280;6027;48.576;9.180;2022-12-10T08:07:03;95748.28;;;1.01;100.00
11936;BME280;6027;48.576;9.180;2022-12-10T08:09:29;95750.84;;;0.93;100.00
11936;BME280;6027;48.576;9.180;2022-12-10T08:11:54;95752.81;;;0.99;100.00
11936;BME280;6027;48.576;9.180;2022-12-10T08:14:20;95752.00;;;0.98;100.00
11936;BME280;6027;48.576;9.180;2022-12-10T08:16:45;95753.66;;;0.99;100.00
11936;BME280;6027;48.576;9.180;2022-12-10T08:21:45;95738.13;;;0.90;100.00
11936;BME280;6027;48.576;9.180;2022-12-10T08:24:11;95761.84;;;1.04;100.00
11936;BME280;6027;48.576;9.180;2022-12-10T08:26:36;95762.06;;;1.11;100.00
11936;BME280;6027;48.576;9.180;2022-12-10T08:29:03;95765.13;;;1.07;100.00
11936;BME280;6027;48.576;9.180;2022-12-10T08:31:29;95768.16;;;1.02;100.00
11936;BME280;6027;48.576;9.180;2022-12-10T08:33:54;95778.41;;;0.95;100.00
11936;BME280;6027;48.576;9.180;2022-12-10T08:36:21;95782.84;;;1.03;100.00
11936;BME280;6027;48.576;9.180;2022-12-10T08:38:46;95788.66;;;1.15;100.00
11936;BME280;6027;48.576;9.180;2022-12-10T08:41:17;95792.78;;;1.25;100.00
11936;BME280;6027;48.576;9.180;2022-12-10T08:43:43;95790.72;;;1.29;100.00
11936;BME280;6027;48.576;9.180;2022-12-10T08:46:10;95795.41;;;1.25;100.00
11936;BME280;6027;48.576;9.180;2022-12-10T08:48:36;95782.88;;;1.29;100.00
11936;BME280;6027;48.576;9.180;2022-12-10T08:51:03;95781.91;;;1.30;100.00
11936;BME280;6027;48.576;9.180;2022-12-10T08:53:36;95777.00;;;1.27;100.00
11936;BME280;6027;48.576;9.180;2022-12-10T08:56:05;95776.44;;;1.15;100.00
11936;BME280;6027;48.576;9.180;2022-12-10T08:58:31;95773.16;;;1.13;100.00
11936;BME280;6027;48.576;9.180;2022-12-10T09:00:57;95783.44;;;1.15;100.00
11936;BME280;6027;48.576;9.180;2022-12-10T09:03:22;95789.28;;;1.17;100.00
11936;BME280;6027;48.576;9.180;2022-12-10T09:05:54;95805.75;;;1.17;100.00
11936;BME280;6027;48.576;9.180;2022-12-10T09:08:19;95804.78;;;1.18;100.00
11936;BME280;6027;48.576;9.180;2022-12-10T09:10:45;95799.56;;;1.18;100.00
11936;BME280;6027;48.576;9.180;2022-12-10T09:13:10;95799.44;;;1.20;100.00
11936;BME280;6027;48.576;9.180;2022-12-10T09:15:36;95794.22;;;1.20;100.00
11936;BME280;6027;48.576;9.180;2022-12-10T09:18:01;95802.41;;;1.25;100.00
11936;BME280;6027;48.576;9.180;2022-12-10T09:20:27;95806.81;;;1.24;100.00
11936;BME280;6027;48.576;9.180;2022-12-10T09:22:55;95801.50;;;1.34;100.00
11936;BME280;6027;48.576;9.180;2022-12-10T09:25:21;95812.44;;;1.37;100.00
11936;BME280;6027;48.576;9.180;2022-12-10T09:27:46;95819.97;;;1.41;100.00
11936;BME280;6027;48.576;9.180;2022-12-10T09:30:12;95829.03;;;1.36;100.00
11936;BME280;6027;48.576;9.180;2022-12-10T09:32:38;95829.38;;;1.33;100.00
11936;BME280;6027;48.576;9.180;2022-12-10T09:35:04;95836.28;;;1.25;100.00
11936;BME280;6027;48.576;9.180;2022-12-10T09:37:29;95837.56;;;1.21;100.00
11936;BME280;6027;48.576;9.180;2022-12-10T09:39:55;95833.97;;;1.22;100.00
11936;BME280;6027;48.576;9.180;2022-12-10T09:45:02;95844.13;;;1.25;100.00
11936;BME280;6027;48.576;9.180;2022-12-10T09:50:26;95834.38;;;1.27;100.00
11936;BME280;6027;48.576;9.180;2022-12-10T09:55:37;95833.16;;;1.21;100.00
11936;BME280;6027;48.576;9.180;2022-12-10T09:58:05;95827.88;;;1.31;100.00
11936;BME280;6027;48.576;9.180;2022-12-10T10:00:40;95833.25;;;1.29;100.00
11936;BME280;6027;48.576;9.180;2022-12-10T10:03:14;95823.50;;;1.31;100.00
11936;BME280;6027;48.576;9.180;2022-12-10T10:05:47;95822.06;;;1.19;100.00
11936;BME280;6027;48.576;9.180;2022-12-10T10:08:35;95808.97;;;1.29;100.00
11936;BME280;6027;48.576;9.180;2022-12-10T10:11:02;95812.53;;;1.28;100.00
11936;BME280;6027;48.576;9.180;2022-12-10T10:18:57;95782.25;;;1.09;100.00
11936;BME280;6027;48.576;9.180;2022-12-10T10:21:32;95804.75;;;1.10;100.00
11936;BME280;6027;48.576;9.180;2022-12-10T10:24:01;95805.19;;;1.06;100.00
11936;BME280;6027;48.576;9.180;2022-12-10T10:26:30;95796.53;;;1.05;100.00
11936;BME280;6027;48.576;9.180;2022-12-10T10:29:01;95815.75;;;1.22;100.00
11936;BME280;6027;48.576;9.180;2022-12-10T10:31:33;95784.47;;;1.04;100.00
11936;BME280;6027;48.576;9.180;2022-12-10T10:34:06;95835.47;;;1.24;100.00
11936;BME280;6027;48.576;9.180;2022-12-10T10:36:35;95824.63;;;1.11;100.00
11936;BME280;6027;48.576;9.180;2022-12-10T10:39:26;95816.03;;;1.19;100.00
11936;BME280;6027;48.576;9.180;2022-12-10T10:41:54;95807.88;;;1.14;100.00
11936;BME280;6027;48.576;9.180;2022-12-10T10:44:34;95837.25;;;1.42;100.00
11936;BME280;6027;48.576;9.180;2022-12-10T10:47:00;95824.38;;;1.22;100.00
11936;BME280;6027;48.576;9.180;2022-12-10T10:49:31;95849.19;;;1.26;100.00
11936;BME280;6027;48.576;9.180;2022-12-10T10:52:00;95849.47;;;1.23;100.00
11936;BME280;6027;48.576;9.180;2022-12-10T10:57:04;95858.13;;;1.24;100.00
11936;BME280;6027;48.576;9.180;2022-12-10T10:59:34;95851.63;;;1.46;100.00
11936;BME280;6027;48.576;9.180;2022-12-10T11:04:49;95863.03;;;1.45;100.00
11936;BME280;6027;48.576;9.180;2022-12-10T11:07:23;95868.00;;;1.38;100.00
11936;BME280;6027;48.576;9.180;2022-12-10T11:09:52;95860.34;;;1.36;100.00
11936;BME280;6027;48.576;9.180;2022-12-10T11:12:39;95854.59;;;1.51;100.00
11936;BME280;6027;48.576;9.180;2022-12-10T11:15:28;95849.69;;;1.48;100.00
11936;BME280;6027;48.576;9.180;2022-12-10T11:17:55;95858.38;;;1.56;100.00
11936;BME280;6027;48.576;9.180;2022-12-10T11:20:30;95854.31;;;1.54;100.00
11936;BME280;6027;48.576;9.180;2022-12-10T11:22:58;95853.50;;;1.53;100.00
11936;BME280;6027;48.576;9.180;2022-12-10T11:25:42;95854.66;;;1.59;100.00
11936;BME280;6027;48.576;9.180;2022-12-10T11:28:37;95855.16;;;1.62;100.00
11936;BME280;6027;48.576;9.180;2022-12-10T11:31:26;95857.22;;;1.51;100.00
11936;BME280;6027;48.576;9.180;2022-12-10T11:36:57;95844.19;;;1.51;100.00
11936;BME280;6027;48.576;9.180;2022-12-10T11:42:09;95836.84;;;1.54;100.00
11936;BME280;6027;48.576;9.180;2022-12-10T11:45:00;95834.41;;;1.53;100.00
11936;BME280;6027;48.576;9.180;2022-12-10T11:47:57;95828.44;;;1.43;100.00
11936;BME280;6027;48.576;9.180;2022-12-10T11:56:37;95836.13;;;1.44;100.00
11936;BME280;6027;48.576;9.180;2022-12-10T12:09:50;95833.66;;;1.43;100.00
11936;BME280;6027;48.576;9.180;2022-12-10T12:14:57;95858.91;;;1.60;100.00
11936;BME280;6027;48.576;9.180;2022-12-10T12:17:36;95868.50;;;1.59;100.00
11936;BME280;6027;48.576;9.180;2022-12-10T12:22:56;95879.69;;;1.69;100.00
11936;BME280;6027;48.576;9.180;2022-12-10T12:25:34;95877.38;;;1.66;100.00
11936;BME280;6027;48.576;9.180;2022-12-10T12:28:06;95874.69;;;1.58;100.00
11936;BME280;6027;48.576;9.180;2022-12-10T12:30:37;95882.59;;;1.66;100.00
11936;BME280;6027;48.576;9.180;2022-12-10T12:35:49;95869.59;;;1.49;100.00
11936;BME280;6027;48.576;9.180;2022-12-10T12:38:28;95887.69;;;1.50;100.00
11936;BME280;6027;48.576;9.180;2022-12-10T12:41:06;95892.13;;;1.58;100.00
11936;BME280;6027;48.576;9.180;2022-12-10T12:43:49;95893.78;;;1.59;100.00
11936;BME280;6027;48.576;9.180;2022-12-10T12:46:42;95878.16;;;1.41;100.00
11936;BME280;6027;48.576;9.180;2022-12-10T12:51:43;95914.31;;;1.54;100.00
11936;BME280;6027;48.576;9.180;2022-12-10T12:54:11;95913.97;;;1.57;100.00
11936;BME280;6027;48.576;9.180;2022-12-10T12:56:55;95901.91;;;1.56;100.00
11936;BME280;6027;48.576;9.180;2022-12-10T12:59:36;95907.25;;;1.54;100.00
11936;BME280;6027;48.576;9.180;2022-12-10T13:02:17;95905.13;;;1.50;100.00
11936;BME280;6027;48.576;9.180;2022-12-10T13:04:46;95908.09;;;1.55;100.00
11936;BME280;6027;48.576;9.180;2022-12-10T13:12:46;95901.06;;;1.55;100.00
11936;BME280;6027;48.576;9.180;2022-12-10T13:20:30;95912.25;;;1.65;100.00
11936;BME280;6027;48.576;9.180;2022-12-10T13:23:27;95911.38;;;1.57;100.00
11936;BME280;6027;48.576;9.180;2022-12-10T13:31:16;95917.88;;;1.53;100.00
11936;BME280;6027;48.576;9.180;2022-12-10T13:39:02;95918.69;;;1.53;100.00
11936;BME280;6027;48.576;9.180;2022-12-10T13:41:41;95934.03;;;1.56;100.00
11936;BME280;6027;48.576;9.180;2022-12-10T13:47:47;95938.75;;;1.53;100.00
11936;BME280;6027;48.576;9.180;2022-12-10T13:50:39;95950.34;;;1.58;100.00
11936;BME280;6027;48.576;9.180;2022-12-10T13:53:20;95960.63;;;1.60;100.00
11936;BME280;6027;48.576;9.180;2022-12-10T13:56:12;95952.75;;;1.52;100.00
11936;BME280;6027;48.576;9.180;2022-12-10T14:04:31;95967.88;;;1.66;100.00
11936;BME280;6027;48.576;9.180;2022-12-10T14:07:03;95975.09;;;1.54;100.00
11936;BME280;6027;48.576;9.180;2022-12-10T14:09:37;95981.31;;;1.53;100.00
11936;BME280;6027;48.576;9.180;2022-12-10T14:12:33;95976.97;;;1.62;100.00
11936;BME280;6027;48.576;9.180;2022-12-10T14:15:22;95980.75;;;1.50;100.00
11936;BME280;6027;48.576;9.180;2022-12-10T14:17:51;95989.13;;;1.53;100.00
11936;BME280;6027;48.576;9.180;2022-12-10T14:20:22;95998.34;;;1.48;100.00
11936;BME280;6027;48.576;9.180;2022-12-10T14:22:50;95990.38;;;1.31;100.00
11936;BME280;6027;48.576;9.180;2022-12-10T14:25:19;95995.56;;;1.31;100.00
11936;BME280;6027;48.576;9.180;2022-12-10T14:27:50;95997.72;;;1.36;100.00
11936;BME280;6027;48.576;9.180;2022-12-10T14:30:24;96001.22;;;1.27;100.00
11936;BME280;6027;48.576;9.180;2022-12-10T14:32:54;96004.66;;;1.27;100.00
11936;BME280;6027;48.576;9.180;2022-12-10T14:35:23;96002.19;;;1.26;100.00
11936;BME280;6027;48.576;9.180;2022-12-10T14:37:50;95996.59;;;1.38;100.00
11936;BME280;6027;48.576;9.180;2022-12-10T14:40:39;95999.34;;;1.19;100.00
11936;BME280;6027;48.576;9.180;2022-12-10T14:43:16;96003.97;;;1.25;100.00
11936;BME280;6027;48.576;9.180;2022-12-10T14:45:51;96007.78;;;1.31;100.00
11936;BME280;6027;48.576;9.180;2022-12-10T14:48:19;96016.03;;;1.26;100.00
11936;BME280;6027;48.576;9.180;2022-12-10T14:50:45;96017.69;;;1.27;100.00
11936;BME280;6027;48.576;9.180;2022-12-10T14:53:20;96012.47;;;1.27;100.00
11936;BME280;6027;48.576;9.180;2022-12-10T14:55:50;96022.66;;;1.21;100.00
11936;BME280;6027;48.576;9.180;2022-12-10T14:58:39;96016.75;;;1.19;100.00
11936;BME280;6027;48.576;9.180;2022-12-10T15:01:09;96026.28;;;1.10;100.00
11936;BME280;6027;48.576;9.180;2022-12-10T15:03:44;96034.69;;;1.04;100.00
11936;BME280;6027;48.576;9.180;2022-12-10T15:06:17;96031.25;;;1.03;100.00
11936;BME280;6027;48.576;9.180;2022-12-10T15:08:45;96031.78;;;1.07;100.00
11936;BME280;6027;48.576;9.180;2022-12-10T15:11:16;96023.34;;;0.95;100.00
11936;BME280;6027;48.576;9.180;2022-12-10T15:13:45;96035.69;;;0.93;100.00